Time;durP1;ratioP1;P1;durP2;ratioP2;P2;SDS_P1;SDS_P2;PMS_P1;PMS_P2;Temp;Humidity;BMP_temperature;BMP_pressure;BME280_temperature;BME280_humidity;BME280_pressure;Samples;Min_cycle;Max_cycle;Signal;HPM_P1;HPM_P2
2022/06/19 00:00:59;;;;;;;11.07;3.22;;;;;;;15.59;57.64;99353.56;5027072;28;20107;-76
2022/06/19 00:03:27;;;;;;;;;;;;;;;15.56;58.18;99359.72;5026002;28;20090;-74
2022/06/19 00:05:54;;;;;;;11.65;3.30;;;;;;;15.54;58.40;99351.78;5024576;28;19987;-74
2022/06/19 00:08:20;;;;;;;11.00;3.50;;;;;;;15.55;58.41;99347.06;5026794;28;20543;-75
2022/06/19 00:10:48;;;;;;;10.05;3.28;;;;;;;15.52;58.57;99343.00;5026903;28;20049;-74
2022/06/19 00:13:16;;;;;;;9.25;3.10;;;;;;;15.54;58.96;99337.19;5026139;28;20132;-75
2022/06/19 00:15:43;;;;;;;12.25;3.60;;;;;;;15.52;58.71;99342.19;5025904;28;20064;-75
2022/06/19 00:18:09;;;;;;;11.23;3.28;;;;;;;15.52;58.86;99339.44;5025833;28;20052;-75
2022/06/19 00:20:35;;;;;;;13.07;3.35;;;;;;;15.53;59.12;99341.91;5024870;28;20056;-74
2022/06/19 00:23:01;;;;;;;13.63;3.25;;;;;;;15.57;58.84;99342.03;5007819;28;20144;-74
2022/06/19 00:25:28;;;;;;;13.77;3.22;;;;;;;15.59;58.79;99329.59;5027012;28;20049;-74
2022/06/19 00:27:55;;;;;;;9.18;3.00;;;;;;;15.61;59.03;99326.53;5007933;28;20049;-74
2022/06/19 00:30:22;;;;;;;10.43;3.10;;;;;;;15.61;58.79;99332.03;5043790;28;20048;-74
2022/06/19 00:32:48;;;;;;;15.25;3.47;;;;;;;15.62;58.79;99330.91;5043234;28;20073;-75
2022/06/19 00:35:14;;;;;;;10.85;3.35;;;;;;;15.60;58.89;99325.69;5044787;28;20049;-72
2022/06/19 00:37:41;;;;;;;11.75;3.50;;;;;;;15.56;59.11;99323.88;5045569;28;20141;-75
2022/06/19 00:40:09;;;;;;;9.15;3.40;;;;;;;15.58;59.21;99333.47;5045613;28;20563;-73
2022/06/19 00:42:37;;;;;;;8.07;3.10;;;;;;;15.57;59.00;99328.28;5047640;28;20136;-74
2022/06/19 00:45:04;;;;;;;10.75;3.53;;;;;;;15.55;59.06;99327.78;5045913;28;20060;-74
2022/06/19 00:47:35;;;;;;;11.73;3.00;;;;;;;15.54;59.08;99324.22;5027864;28;20079;-74
2022/06/19 00:50:05;;;;;;;11.88;3.25;;;;;;;15.51;58.91;99321.28;5042352;28;20049;-74
2022/06/19 00:52:35;;;;;;;13.55;3.53;;;;;;;15.54;58.84;99326.16;5046226;28;20063;-74
2022/06/19 00:55:07;;;;;;;11.55;2.90;;;;;;;15.53;58.95;99322.59;5045534;28;20586;-74
2022/06/19 00:57:37;;;;;;;11.43;3.22;;;;;;;15.58;58.74;99327.97;5047056;28;20052;-73
2022/06/19 01:00:09;;;;;;;9.65;3.20;;;;;;;15.59;58.32;99326.81;5018436;28;20046;-73
2022/06/19 01:02:38;;;;;;;12.10;3.83;;;;;;;15.60;58.02;99325.69;5044387;28;20074;-74
2022/06/19 01:05:06;;;;;;;10.23;2.85;;;;;;;15.61;58.18;99326.53;5044056;28;20048;-72
2022/06/19 01:07:32;;;;;;;8.70;3.03;;;;;;;15.61;58.23;99315.50;5044909;28;20416;-74
2022/06/19 01:09:59;;;;;;;11.50;3.05;;;;;;;15.65;58.02;99319.22;5045934;28;20098;-74
2022/06/19 01:12:26;;;;;;;9.60;3.08;;;;;;;15.65;58.27;99308.19;5010212;28;20516;-74
2022/06/19 01:15:00;;;;;;;8.73;2.75;;;;;;;15.64;57.60;99312.09;5026613;28;20707;-75
2022/06/19 01:17:28;;;;;;;11.43;2.78;;;;;;;15.64;57.61;99301.06;5043447;28;20488;-74
2022/06/19 01:19:55;;;;;;;8.35;2.50;;;;;;;15.64;57.27;99298.31;5044294;28;20048;-76
2022/06/19 01:22:28;;;;;;;;;;;;;;;15.73;57.14;99307.41;5042691;28;20045;-76
2022/06/19 01:25:05;;;;;;;9.32;2.80;;;;;;;15.78;57.16;99300.91;5045526;28;19925;-74
2022/06/19 01:30:21;;;;;;;12.25;3.15;;;;;;;15.80;56.94;99301.41;5047251;28;20044;-67
2022/06/19 01:32:50;;;;;;;17.70;2.85;;;;;;;15.81;56.71;99307.75;5043076;28;20049;-68
2022/06/19 01:35:19;;;;;;;10.82;3.30;;;;;;;15.82;56.77;99298.34;5044060;28;20079;-68
2022/06/19 01:37:45;;;;;;;20.92;3.63;;;;;;;15.79;56.76;99294.28;5042492;28;20444;-67
2022/06/19 01:40:18;;;;;;;10.02;2.90;;;;;;;15.85;57.14;99289.41;5044021;28;20051;-69
2022/06/19 01:42:44;;;;;;;15.75;2.80;;;;;;;15.85;56.80;99305.97;5042514;28;20057;-67
2022/06/19 01:45:11;;;;;;;11.05;2.85;;;;;;;15.81;57.03;99288.44;5043257;28;20273;-68
2022/06/19 01:47:40;;;;;;;9.83;3.23;;;;;;;15.91;57.04;99299.19;5041940;28;20076;-68
2022/06/19 01:50:08;;;;;;;15.10;3.30;;;;;;;15.95;56.72;99300.16;5042511;28;20080;-67
2022/06/19 01:52:34;;;;;;;10.82;3.30;;;;;;;15.99;56.80;99294.81;5043382;28;20480;-68
2022/06/19 01:55:05;;;;;;;10.68;3.50;;;;;;;16.02;56.72;99289.47;5044376;28;20052;-67
2022/06/19 01:57:35;;;;;;;12.27;3.35;;;;;;;16.04;56.43;99293.84;5043841;28;20049;-67
2022/06/19 02:00:03;;;;;;;9.88;2.88;;;;;;;16.06;56.17;99286.88;5009640;28;20060;-67
2022/06/19 02:02:42;;;;;;;10.30;2.80;;;;;;;16.10;56.22;99284.28;5044348;28;20409;-68
2022/06/19 02:05:08;;;;;;;13.85;2.83;;;;;;;16.13;56.09;99284.44;5041243;28;20041;-69
2022/06/19 02:07:34;;;;;;;20.25;3.00;;;;;;;16.15;56.11;99278.59;5044114;28;20067;-67
2022/06/19 02:10:01;;;;;;;10.90;2.77;;;;;;;16.15;56.26;99275.84;5044225;28;20064;-68
2022/06/19 02:12:32;;;;;;;11.18;2.80;;;;;;;16.16;56.01;99277.47;5045807;28;20080;-68
2022/06/19 02:15:20;;;;;;;8.80;2.58;;;;;;;16.21;55.82;99274.53;5026858;28;20057;-66
2022/06/19 02:17:50;;;;;;;10.82;2.78;;;;;;;16.22;55.42;99278.91;5045382;28;20290;-67
2022/06/19 02:20:17;;;;;;;9.43;2.75;;;;;;;16.26;55.69;99266.09;5043969;28;20064;-65
2022/06/19 02:22:43;;;;;;;;;;;;;;;16.28;55.91;99265.75;5043680;28;20053;-66
2022/06/19 02:25:10;;;;;;;8.90;2.67;;;;;;;16.28;55.73;99261.06;5041092;28;19978;-74
2022/06/19 02:27:38;;;;;;;9.27;2.70;;;;;;;16.36;55.22;99270.47;5009127;28;20052;-76
2022/06/19 02:30:07;;;;;;;11.85;2.80;;;;;;;16.39;55.15;99269.00;5042437;28;20418;-74
2022/06/19 02:32:38;;;;;;;10.93;2.40;;;;;;;16.42;54.74;99260.88;5043006;28;20496;-75
2022/06/19 02:35:06;;;;;;;10.57;2.70;;;;;;;16.45;54.76;99254.69;5041313;28;20057;-74
2022/06/19 02:37:41;;;;;;;7.55;2.30;;;;;;;16.51;55.12;99265.59;5044383;28;20057;-73
2022/06/19 02:40:19;;;;;;;9.55;2.30;;;;;;;16.54;54.55;99260.19;5043637;28;20095;-75
2022/06/19 02:42:47;;;;;;;9.27;2.35;;;;;;;16.59;54.26;99253.69;5043963;28;20480;-74
2022/06/19 02:45:16;;;;;;;10.43;2.63;;;;;;;16.61;54.10;99261.66;5045224;28;20147;-74
2022/06/19 02:47:45;;;;;;;9.70;2.80;;;;;;;16.63;53.84;99254.69;5027285;28;20148;-74
2022/06/19 02:50:16;;;;;;;11.65;2.40;;;;;;;16.65;54.01;99257.09;5026175;28;20072;-74
2022/06/19 02:52:43;;;;;;;6.72;2.30;;;;;;;16.67;53.83;99257.56;5005780;28;20060;-74
2022/06/19 02:55:10;;;;;;;7.63;2.53;;;;;;;16.70;53.78;99259.66;5021699;28;20049;-73
2022/06/19 02:57:38;;;;;;;9.38;2.40;;;;;;;16.75;53.36;99259.50;5016937;28;20510;-77
2022/06/19 03:00:07;;;;;;;10.25;2.55;;;;;;;16.75;53.50;99247.66;5041619;28;20060;-75
2022/06/19 03:02:33;;;;;;;12.20;2.40;;;;;;;16.72;53.26;99249.94;5041758;28;20139;-68
2022/06/19 03:05:04;;;;;;;11.05;2.63;;;;;;;16.69;53.23;99235.97;5042306;28;20432;-68
2022/06/19 03:07:30;;;;;;;11.93;2.83;;;;;;;16.71;53.54;99244.75;5039143;28;20690;-67
2022/06/19 03:09:56;;;;;;;9.07;2.40;;;;;;;16.77;53.37;99256.41;5041716;28;20052;-66
2022/06/19 03:12:23;;;;;;;9.48;2.67;;;;;;;16.84;53.46;99249.22;5044884;28;20045;-67
2022/06/19 03:14:49;;;;;;;6.97;2.20;;;;;;;16.87;53.11;99248.59;5042785;28;20049;-67
2022/06/19 03:17:18;;;;;;;8.57;2.97;;;;;;;16.92;53.08;99231.00;5044417;28;20063;-66
2022/06/19 03:19:44;;;;;;;8.63;2.47;;;;;;;16.86;53.29;99213.84;5043212;28;20056;-65
2022/06/19 03:22:12;;;;;;;12.93;2.78;;;;;;;16.96;53.54;99225.66;5047625;28;20398;-68
2022/06/19 03:24:39;;;;;;;8.68;2.53;;;;;;;17.05;53.25;99231.97;5048645;28;20103;-67
2022/06/19 03:27:06;;;;;;;9.13;2.50;;;;;;;17.11;52.95;99227.88;5046090;28;20164;-67
2022/06/19 03:29:33;;;;;;;7.30;2.63;;;;;;;17.16;53.07;99218.59;5048963;28;20047;-68
2022/06/19 03:31:59;;;;;;;9.03;2.30;;;;;;;17.23;52.54;99218.06;5048287;28;20350;-66
2022/06/19 03:34:25;;;;;;;7.00;2.67;;;;;;;17.29;52.46;99209.25;5047520;28;20511;-68
2022/06/19 03:36:51;;;;;;;10.40;2.80;;;;;;;17.36;52.78;99211.50;5045368;28;20044;-67
2022/06/19 03:39:19;;;;;;;9.20;2.60;;;;;;;17.39;52.74;99207.22;5045062;28;20524;-69
2022/06/19 03:41:46;;;;;;;7.85;2.67;;;;;;;17.37;52.31;99212.28;5046248;28;20144;-67
2022/06/19 03:44:12;;;;;;;15.35;2.63;;;;;;;17.38;52.52;99206.44;5046384;28;20508;-68
2022/06/19 03:46:38;;;;;;;10.20;2.72;;;;;;;17.46;51.81;99207.53;5048713;28;20052;-67
2022/06/19 03:49:04;;;;;;;6.50;2.50;;;;;;;17.43;52.15;99202.69;5047355;28;20041;-75
2022/06/19 03:51:31;;;;;;;13.30;2.45;;;;;;;17.36;52.33;99205.16;5026500;28;20069;-76
2022/06/19 03:53:57;;;;;;;8.63;2.47;;;;;;;17.33;52.46;99192.84;5047602;28;20058;-73
2022/06/19 03:56:29;;;;;;;13.18;2.95;;;;;;;17.37;52.39;99196.53;5047745;28;20064;-75
2022/06/19 03:58:57;;;;;;;12.15;2.72;;;;;;;17.52;52.14;99202.63;5044784;28;20154;-74
2022/06/19 04:01:25;;;;;;;12.40;3.00;;;;;;;17.58;52.11;99191.03;5045695;28;20103;-75
2022/06/19 04:03:54;;;;;;;8.75;2.70;;;;;;;17.63;52.48;99183.66;5043342;28;20049;-75
2022/06/19 04:06:22;;;;;;;8.60;2.47;;;;;;;17.74;51.78;99184.88;5026391;28;20072;-74
2022/06/19 04:08:48;;;;;;;11.75;3.05;;;;;;;17.75;52.15;99189.25;5047045;28;20049;-75
2022/06/19 04:11:16;;;;;;;10.80;2.63;;;;;;;17.75;52.31;99185.69;5045321;28;20064;-75
2022/06/19 04:13:44;;;;;;;13.10;3.65;;;;;;;17.78;52.02;99185.00;5039291;28;20048;-76
2022/06/19 04:16:14;;;;;;;10.38;2.70;;;;;;;17.80;52.27;99185.50;5026626;28;20052;-68
2022/06/19 04:18:40;;;;;;;11.75;3.28;;;;;;;17.86;52.10;99184.13;5026969;28;20085;-67
2022/06/19 04:21:12;;;;;;;10.30;3.15;;;;;;;17.83;52.08;99170.97;5027016;28;20049;-67
2022/06/19 04:23:38;;;;;;;13.32;2.97;;;;;;;17.86;51.95;99171.09;5026779;28;20045;-68
2022/06/19 04:26:07;;;;;;;10.13;3.20;;;;;;;17.91;51.52;99175.59;5025475;28;20068;-67
2022/06/19 04:28:33;;;;;;;11.75;3.00;;;;;;;17.95;52.15;99175.75;5025318;28;20069;-67
2022/06/19 04:31:01;;;;;;;9.93;2.85;;;;;;;17.96;51.85;99164.34;5024167;28;20428;-68
2022/06/19 04:33:27;;;;;;;12.43;3.22;;;;;;;18.10;51.21;99166.03;5026632;28;20046;-68
2022/06/19 04:35:53;;;;;;;10.52;2.80;;;;;;;18.16;51.46;99161.91;5025209;28;20432;-67
2022/06/19 04:38:19;;;;;;;8.15;2.60;;;;;;;18.18;51.22;99173.44;5022750;28;20052;-67
2022/06/19 04:40:45;;;;;;;9.15;2.90;;;;;;;18.18;51.15;99154.06;5025266;28;20223;-68
2022/06/19 04:43:12;;;;;;;9.80;2.95;;;;;;;18.26;51.50;99167.00;5025977;28;20084;-74
2022/06/19 04:45:39;;;;;;;12.13;3.30;;;;;;;18.24;51.17;99155.47;5023835;28;20080;-74
2022/06/19 04:48:07;;;;;;;11.07;2.70;;;;;;;18.20;51.33;99151.75;5024946;28;20050;-75
2022/06/19 04:50:33;;;;;;;13.57;2.70;;;;;;;18.24;51.48;99155.47;5022378;28;20099;-75
2022/06/19 04:52:59;;;;;;;13.50;2.85;;;;;;;18.33;51.42;99157.34;5025148;28;20046;-75
2022/06/19 04:55:26;;;;;;;15.65;3.13;;;;;;;18.39;51.40;99148.47;5027077;28;20053;-73
2022/06/19 04:57:53;;;;;;;8.38;2.90;;;;;;;18.51;51.11;99147.66;5024805;28;20135;-74
2022/06/19 05:00:20;;;;;;;9.90;2.90;;;;;;;18.59;51.09;99145.16;5006582;28;20508;-74
2022/06/19 05:02:48;;;;;;;9.57;3.20;;;;;;;18.64;51.08;99134.63;5006842;28;20574;-69
2022/06/19 05:05:18;;;;;;;10.63;3.33;;;;;;;18.68;50.75;99138.34;5026897;28;20045;-68
2022/06/19 05:07:45;;;;;;;10.60;3.08;;;;;;;18.72;50.81;99135.69;5025773;28;20053;-67
2022/06/19 05:10:11;;;;;;;8.35;3.05;;;;;;;18.68;50.90;99132.00;4679790;28;10000494;-67
2022/06/19 05:12:38;;;;;;;8.20;2.63;;;;;;;18.56;51.69;99125.28;5023202;28;20057;-68
2022/06/19 05:15:06;;;;;;;12.63;3.50;;;;;;;18.52;52.03;99127.13;5043126;28;20102;-75
2022/06/19 05:17:33;;;;;;;9.02;2.97;;;;;;;18.57;51.35;99123.34;5017311;28;20421;-75
2022/06/19 05:20:00;;;;;;;15.95;3.20;;;;;;;18.69;51.66;99123.34;5018747;28;20447;-75
2022/06/19 05:22:27;;;;;;;8.05;2.95;;;;;;;18.95;51.07;99130.47;5034803;28;20050;-73
2022/06/19 05:24:53;;;;;;;8.32;2.75;;;;;;;19.20;50.45;99119.41;5021305;28;20079;-75
2022/06/19 05:27:20;;;;;;;10.73;3.00;;;;;;;19.36;49.95;99124.22;5030740;28;20103;-75
2022/06/19 05:29:46;;;;;;;11.98;2.70;;;;;;;19.47;49.63;99130.06;5041612;28;20055;-73
2022/06/19 05:32:12;;;;;;;10.75;2.97;;;;;;;19.55;49.12;99131.91;5056594;28;20052;-76
2022/06/19 05:34:38;;;;;;;11.45;2.72;;;;;;;19.57;48.35;99151.75;5029702;28;20588;-73
2022/06/19 05:37:05;;;;;;;15.32;2.92;;;;;;;19.51;49.07;99117.94;5015254;28;20531;-73
2022/06/19 05:39:32;;;;;;;13.05;3.13;;;;;;;19.47;48.98;99124.53;5039978;28;20051;-75
2022/06/19 05:41:59;;;;;;;12.30;2.55;;;;;;;19.59;49.00;99141.13;5040985;28;20151;-75
2022/06/19 05:44:25;;;;;;;8.98;2.60;;;;;;;19.54;48.61;99125.53;5038958;28;20079;-74
2022/06/19 05:46:51;;;;;;;9.13;3.05;;;;;;;19.57;48.54;99121.25;5042826;28;20077;-73
2022/06/19 05:49:18;;;;;;;9.90;2.87;;;;;;;19.58;48.83;99124.81;5019180;28;20139;-75
2022/06/19 05:51:44;;;;;;;15.38;3.22;;;;;;;19.67;48.91;99119.94;5021912;28;20307;-74
2022/06/19 05:54:10;;;;;;;13.35;3.22;;;;;;;19.72;48.93;99121.66;5018436;28;20157;-76
2022/06/19 05:56:38;;;;;;;9.90;2.67;;;;;;;19.79;48.52;99119.06;5020126;28;20045;-73
2022/06/19 05:59:04;;;;;;;;;;;;;;;19.82;48.22;99129.47;5019827;28;20524;-74
2022/06/19 06:01:31;;;;;;;13.55;3.05;;;;;;;19.82;48.62;99118.38;5004271;28;19931;-75
2022/06/19 06:03:58;;;;;;;13.97;3.17;;;;;;;19.79;48.57;99099.66;5022556;28;20057;-75
2022/06/19 06:06:26;;;;;;;11.50;2.65;;;;;;;19.54;48.81;99100.59;5005932;28;20274;-75
2022/06/19 06:08:53;;;;;;;10.50;3.15;;;;;;;19.44;49.49;99119.69;5022669;28;20048;-76
2022/06/19 06:11:20;;;;;;;;;;;;;;;19.26;50.19;99111.66;5024033;28;20183;-74
2022/06/19 06:13:48;;;;;;;14.75;3.00;;;;;;;19.24;50.42;99103.69;5021175;28;19925;-75
2022/06/19 06:16:17;;;;;;;10.23;2.70;;;;;;;19.24;50.64;99103.69;5040820;28;20049;-74
2022/06/19 06:18:44;;;;;;;12.55;2.88;;;;;;;19.31;50.16;99103.09;5027250;28;20137;-75
2022/06/19 06:21:13;;;;;;;14.88;3.08;;;;;;;19.35;50.19;99117.84;5010040;28;20041;-67
2022/06/19 06:23:39;;;;;;;12.50;2.90;;;;;;;19.39;50.20;99110.47;5023503;28;20512;-67
2022/06/19 06:26:08;;;;;;;9.63;3.15;;;;;;;19.54;50.48;99103.34;5025024;28;20119;-68
2022/06/19 06:28:36;;;;;;;12.63;2.78;;;;;;;19.66;50.13;99102.50;5022164;28;20052;-68
2022/06/19 06:31:03;;;;;;;10.90;2.75;;;;;;;20.00;49.39;99102.25;5023817;28;20565;-68
2022/06/19 06:33:30;;;;;;;12.27;2.88;;;;;;;20.45;47.94;99083.56;5021739;28;20588;-64
2022/06/19 06:35:57;;;;;;;10.20;2.80;;;;;;;21.01;47.01;99078.13;5024343;28;20065;-68
2022/06/19 06:38:24;;;;;;;17.80;3.03;;;;;;;21.09;46.10;99080.72;5022655;28;20064;-68
2022/06/19 06:40:51;;;;;;;15.90;2.72;;;;;;;20.87;46.77;99081.38;5023340;28;20386;-68
2022/06/19 06:43:17;;;;;;;8.00;2.40;;;;;;;20.75;46.52;99073.94;5023011;28;20062;-67
2022/06/19 06:45:43;;;;;;;16.70;2.80;;;;;;;20.61;47.05;99083.53;5023006;28;20049;-67
2022/06/19 06:48:11;;;;;;;15.93;2.95;;;;;;;20.49;46.59;99076.13;5022392;28;20480;-67
2022/06/19 06:50:39;;;;;;;28.17;2.80;;;;;;;20.43;47.03;99066.44;5032741;28;20516;-68
2022/06/19 06:53:04;;;;;;;8.73;2.63;;;;;;;;;;5025538;28;20042;-68
2022/06/19 06:55:30;;;;;;;16.00;2.50;;;;;;;20.14;47.98;99054.66;5023693;28;20071;-66
2022/06/19 06:57:57;;;;;;;10.07;2.58;;;;;;;20.10;48.10;99082.31;5023694;28;20136;-67
2022/06/19 07:00:24;;;;;;;7.55;2.72;;;;;;;19.92;48.36;99083.81;5049860;28;20076;-75
2022/06/19 07:02:51;;;;;;;11.27;2.83;;;;;;;19.86;49.42;99071.31;5050156;28;20041;-75
2022/06/19 07:05:18;;;;;;;12.65;2.47;;;;;;;19.81;49.22;99081.53;5022562;28;20052;-75
2022/06/19 07:07:45;;;;;;;16.48;2.75;;;;;;;19.77;49.76;99066.75;5038440;28;20060;-75
2022/06/19 07:10:12;;;;;;;7.87;2.73;;;;;;;19.81;49.67;99048.25;5040051;28;20049;-75
2022/06/19 07:12:38;;;;;;;7.10;2.77;;;;;;;19.78;50.24;99046.19;5039871;28;20832;-75
2022/06/19 07:15:05;;;;;;;8.45;2.55;;;;;;;19.97;49.30;99051.06;5023992;28;21006;-76
2022/06/19 07:17:31;;;;;;;11.32;2.85;;;;;;;20.00;49.17;99062.63;5025359;28;20052;-75
2022/06/19 07:19:57;;;;;;;10.30;2.70;;;;;;;20.07;49.47;99054.47;5040433;28;20076;-74
2022/06/19 07:22:25;;;;;;;11.60;2.80;;;;;;;20.19;49.26;99034.97;5040323;28;20049;-75
2022/06/19 07:24:51;;;;;;;8.02;2.80;;;;;;;20.35;48.76;99045.25;4676877;28;10000364;-76
2022/06/19 07:27:17;;;;;;;11.50;2.90;;;;;;;20.29;49.18;99050.25;5001932;28;20177;-75
2022/06/19 07:29:45;;;;;;;14.05;2.63;;;;;;;20.43;48.66;99033.13;5018423;28;20045;-75
2022/06/19 07:32:13;;;;;;;7.43;2.70;;;;;;;20.68;48.30;99044.84;5000493;28;20064;-75
2022/06/19 07:34:41;;;;;;;15.80;3.10;;;;;;;21.07;47.39;99038.59;5030382;28;20059;-76
2022/06/19 07:37:07;;;;;;;6.85;2.58;;;;;;;20.92;47.30;99039.44;5059458;28;20590;-75
2022/06/19 07:39:35;;;;;;;12.20;2.95;;;;;;;20.53;48.46;99020.69;5053443;28;20048;-75
2022/06/19 07:42:04;;;;;;;8.48;2.47;;;;;;;20.35;48.50;99034.16;5060538;28;20075;-75
2022/06/19 07:44:30;;;;;;;10.98;2.97;;;;;;;20.25;50.00;99032.72;5056767;28;20049;-75
2022/06/19 07:52:25;;;;;;;9.52;2.85;;;;;;;19.65;50.94;99014.94;5001095;28;20416;-75
2022/06/19 07:54:53;;;;;;;10.02;2.78;;;;;;;19.65;51.23;99023.25;5016107;28;20049;-75
2022/06/19 07:57:19;;;;;;;13.45;2.65;;;;;;;19.72;51.21;99032.94;5033965;28;20131;-76
2022/06/19 07:59:46;;;;;;;17.55;3.08;;;;;;;19.78;50.18;99012.09;5031131;28;20056;-69
2022/06/19 08:02:12;;;;;;;11.90;2.67;;;;;;;19.83;49.30;99000.75;5017146;28;20585;-68
2022/06/19 08:04:38;;;;;;;16.25;2.78;;;;;;;20.16;48.85;99007.13;5017784;28;20146;-69
2022/06/19 08:07:04;;;;;;;13.70;3.13;;;;;;;20.59;48.06;99012.88;5019783;28;20068;-68
2022/06/19 08:09:31;;;;;;;14.60;2.90;;;;;;;20.84;46.48;99013.47;5039168;28;20064;-69
2022/06/19 08:12:00;;;;;;;12.88;2.95;;;;;;;20.76;46.73;99014.44;5037417;28;20049;-68
2022/06/19 08:14:26;;;;;;;11.55;2.90;;;;;;;20.81;46.85;99015.00;5040373;28;20045;-68
2022/06/19 08:16:52;;;;;;;20.20;3.00;;;;;;;20.91;46.81;99007.25;5023748;28;20041;-68
2022/06/19 08:19:18;;;;;;;18.98;3.85;;;;;;;21.13;45.99;98997.38;5024866;28;20170;-68
2022/06/19 08:21:44;;;;;;;10.73;2.65;;;;;;;21.16;45.50;98995.88;5024731;28;20055;-68
2022/06/19 08:24:10;;;;;;;10.85;2.80;;;;;;;21.18;45.62;98993.53;5022936;28;20053;-68
2022/06/19 08:26:36;;;;;;;13.98;2.90;;;;;;;21.35;45.68;98984.72;5020819;28;20069;-68
2022/06/19 08:29:03;;;;;;;13.52;2.80;;;;;;;21.84;44.59;98978.88;5024107;28;20523;-70
2022/06/19 08:31:30;;;;;;;;;;;;;;;21.96;44.26;98971.13;5033671;28;20420;-70
2022/06/19 08:33:56;;;;;;;14.80;3.08;;;;;;;22.16;43.83;98954.34;5038456;28;19925;-69
2022/06/19 08:36:24;;;;;;;15.55;2.70;;;;;;;22.43;43.33;98962.69;5042462;28;20589;-68
2022/06/19 08:38:54;;;;;;;10.63;2.80;;;;;;;22.59;43.31;98957.00;5038576;28;20056;-69
2022/06/19 08:41:41;;;;;;;11.63;2.83;;;;;;;23.01;42.08;98943.97;5035193;28;20128;-74
2022/06/19 08:44:37;;;;;;;15.43;2.95;;;;;;;23.02;42.28;98951.16;5003630;28;20053;-69
2022/06/19 08:47:32;;;;;;;12.30;2.92;;;;;;;23.22;41.77;98945.41;5011810;28;20049;-66
2022/06/19 08:50:08;;;;;;;20.83;3.03;;;;;;;23.25;42.06;98950.22;5029724;28;20045;-69
2022/06/19 08:52:47;;;;;;;13.45;2.95;;;;;;;23.49;41.45;98942.53;5023910;28;20420;-68
2022/06/19 08:55:26;;;;;;;17.40;2.70;;;;;;;23.69;40.71;98937.53;5021123;28;20183;-76
2022/06/19 08:58:06;;;;;;;14.65;3.65;;;;;;;24.06;39.98;98925.50;4986948;28;20053;-69
2022/06/19 09:00:49;;;;;;;16.88;3.30;;;;;;;24.50;38.70;98923.75;5021766;28;20057;-73
2022/06/19 09:03:28;;;;;;;20.27;3.20;;;;;;;24.22;39.33;98910.44;5025258;28;20128;-68
2022/06/19 09:06:01;;;;;;;21.40;3.63;;;;;;;24.32;40.02;98922.84;5020539;28;20064;-76
2022/06/19 09:09:07;;;;;;;13.40;2.63;;;;;;;24.00;40.72;98929.81;4982955;28;20391;-68
2022/06/19 09:12:21;;;;;;;16.98;3.40;;;;;;;23.37;41.03;98927.66;4995078;28;20077;-68
2022/06/19 09:14:57;;;;;;;18.10;3.05;;;;;;;22.98;41.35;98902.13;4995450;28;20081;-68
2022/06/19 09:17:29;;;;;;;13.97;2.97;;;;;;;23.35;41.02;98906.94;5017765;28;20046;-69
2022/06/19 09:20:06;;;;;;;12.30;3.60;;;;;;;23.59;40.73;98905.56;5021252;28;20061;-68
2022/06/19 09:23:05;;;;;;;14.40;3.45;;;;;;;23.44;40.78;98915.00;5020574;28;20627;-68
2022/06/19 09:25:49;;;;;;;11.68;3.10;;;;;;;23.60;40.26;98914.72;5021801;28;20069;-75
2022/06/19 09:28:25;;;;;;;12.48;3.28;;;;;;;23.25;41.25;98888.88;5027079;28;20045;-76
2022/06/19 09:30:57;;;;;;;11.23;3.05;;;;;;;23.67;41.21;98881.31;5040319;28;20091;-68
2022/06/19 09:33:29;;;;;;;12.93;3.10;;;;;;;24.29;40.18;98893.75;5032197;28;20045;-67
2022/06/19 09:36:01;;;;;;;16.88;5.40;;;;;;;24.00;40.46;98885.16;5029662;28;20057;-68
2022/06/19 09:38:36;;;;;;;19.52;3.50;;;;;;;23.41;41.89;98874.72;5033769;28;20106;-75
2022/06/19 09:41:07;;;;;;;16.45;3.00;;;;;;;23.51;41.89;98870.41;5041154;28;20141;-76
2022/06/19 09:43:39;;;;;;;9.70;3.03;;;;;;;23.37;42.32;98873.91;5040127;28;20055;-75
2022/06/19 09:46:13;;;;;;;9.82;3.05;;;;;;;23.19;42.66;98856.97;5029309;28;20639;-75
2022/06/19 09:48:46;;;;;;;10.48;3.47;;;;;;;23.11;43.00;98849.72;5018976;28;20061;-69
2022/06/19 09:51:16;;;;;;;18.67;2.92;;;;;;;23.20;43.13;98851.00;5033137;28;20136;-68
2022/06/19 09:53:48;;;;;;;15.43;3.35;;;;;;;23.22;42.86;98865.38;5029064;28;20140;-69
2022/06/19 09:56:22;;;;;;;17.88;3.42;;;;;;;23.07;43.20;98832.97;5037011;28;20053;-69
2022/06/19 09:58:54;;;;;;;11.43;3.20;;;;;;;23.15;42.45;98826.25;5022174;28;20049;-71
2022/06/19 10:01:23;;;;;;;13.88;3.55;;;;;;;23.36;42.32;98819.31;5021301;28;20041;-68
2022/06/19 10:03:59;;;;;;;13.98;3.80;;;;;;;23.56;41.45;98817.06;5025816;28;20050;-69
2022/06/19 10:06:34;;;;;;;14.57;3.35;;;;;;;24.38;39.70;98811.59;5023252;28;20167;-69
2022/06/19 10:09:04;;;;;;;14.68;3.35;;;;;;;24.93;38.30;98804.97;5024990;28;20075;-68
2022/06/19 10:11:36;;;;;;;12.02;3.28;;;;;;;25.06;38.30;98811.00;5047503;28;20044;-68
2022/06/19 10:14:05;;;;;;;10.43;3.08;;;;;;;24.95;38.17;98829.75;5043077;28;20087;-69
2022/06/19 10:16:44;;;;;;;15.65;3.60;;;;;;;24.59;38.93;98808.06;5046347;28;20073;-69
2022/06/19 10:19:17;;;;;;;12.50;3.25;;;;;;;24.20;39.75;98779.63;5039920;28;20045;-67
2022/06/19 10:24:49;;;;;;;12.68;3.80;;;;;;;23.90;40.57;98782.59;5024753;28;20057;-68
2022/06/19 10:27:26;;;;;;;9.13;3.00;;;;;;;23.75;41.24;98785.31;5025236;28;20057;-69
2022/06/19 10:30:00;;;;;;;11.50;3.95;;;;;;;23.72;41.33;98776.91;5026966;28;20075;-68
2022/06/19 10:32:37;;;;;;;18.10;3.65;;;;;;;23.65;42.00;98786.84;5008546;28;20056;-69
2022/06/19 10:35:15;;;;;;;11.80;3.55;;;;;;;23.92;41.46;98769.06;5008669;28;20083;-69
2022/06/19 10:37:55;;;;;;;14.45;3.80;;;;;;;24.76;39.83;98745.06;5027399;28;20049;-68
2022/06/19 10:40:32;;;;;;;17.27;3.85;;;;;;;25.32;38.60;98753.88;5023660;28;20046;-68
2022/06/19 10:43:11;;;;;;;16.65;3.58;;;;;;;25.74;37.43;98745.03;5027897;28;20065;-69
2022/06/19 10:45:41;;;;;;;11.07;3.50;;;;;;;25.47;38.06;98717.50;5045238;28;20143;-70
2022/06/19 10:48:24;;;;;;;24.38;3.92;;;;;;;25.36;37.76;98714.69;5056818;28;20094;-69
2022/06/19 10:51:03;;;;;;;18.27;4.05;;;;;;;25.56;37.72;98714.31;5060867;28;20056;-69
2022/06/19 10:53:50;;;;;;;10.95;3.60;;;;;;;26.08;36.72;98719.34;5019688;28;20061;-68
2022/06/19 10:56:29;;;;;;;15.35;3.90;;;;;;;24.91;39.18;98724.34;5024248;28;20550;-69
2022/06/19 10:58:56;;;;;;;17.50;3.72;;;;;;;24.25;40.37;98730.16;5023704;28;20050;-68
2022/06/19 11:04:17;;;;;;;26.50;4.05;;;;;;;23.60;41.84;98720.28;5025654;28;20194;-76
2022/06/19 11:06:50;;;;;;;16.83;3.78;;;;;;;23.49;42.02;98724.97;5026892;28;20424;-74
2022/06/19 11:09:21;;;;;;;21.65;4.30;;;;;;;24.05;41.07;98710.94;5021915;28;20049;-76
2022/06/19 11:11:51;;;;;;;27.98;3.75;;;;;;;24.57;40.39;98704.31;5024178;28;20132;-76
2022/06/19 11:14:29;;;;;;;15.27;4.03;;;;;;;24.39;40.46;98701.47;5024066;28;20571;-75
2022/06/19 11:16:58;;;;;;;11.73;3.40;;;;;;;24.03;41.31;98730.06;5021135;28;20135;-76
2022/06/19 11:19:32;;;;;;;9.10;3.10;;;;;;;23.82;42.36;98751.06;5025352;28;20045;-69
2022/06/19 11:22:00;;;;;;;9.75;3.13;;;;;;;23.70;42.27;98748.59;5019832;28;20587;-69
2022/06/19 11:24:28;;;;;;;25.83;3.80;;;;;;;23.55;43.10;98731.78;5011067;28;20126;-68
2022/06/19 11:26:56;;;;;;;17.48;3.53;;;;;;;23.23;43.77;98735.13;5042689;28;20466;-68
2022/06/19 11:29:25;;;;;;;22.58;4.07;;;;;;;23.06;43.99;98756.88;5033410;28;20447;-69
2022/06/19 11:32:08;;;;;;;24.85;4.28;;;;;;;23.04;44.07;98723.03;5023614;28;20053;-69
2022/06/19 11:34:44;;;;;;;30.45;4.20;;;;;;;23.13;44.14;98719.13;5029392;28;20481;-69
2022/06/19 11:37:16;;;;;;;19.75;3.60;;;;;;;23.50;43.50;98769.22;5042954;28;20175;-69
2022/06/19 11:39:45;;;;;;;18.08;3.85;;;;;;;23.55;43.67;98751.31;5044931;28;20199;-68
2022/06/19 11:42:28;;;;;;;23.25;3.42;;;;;;;23.51;43.43;98767.22;5044667;28;20364;-68
2022/06/19 11:44:57;;;;;;;10.82;3.20;;;;;;;23.42;43.84;98738.88;5049216;28;20582;-75
2022/06/19 11:47:37;;;;;;;12.27;3.30;;;;;;;23.37;44.52;98735.25;5024720;28;20144;-75
2022/06/19 11:50:18;;;;;;;17.02;3.65;;;;;;;23.44;43.65;98714.19;4692680;28;10000525;-76
2022/06/19 11:52:51;;;;;;;19.38;4.10;;;;;;;23.87;42.97;98725.56;5046114;28;20049;-76
2022/06/19 11:55:23;;;;;;;17.15;4.10;;;;;;;24.37;41.70;98724.22;5039180;28;20135;-76